Time;durP1;ratioP1;P1;durP2;ratioP2;P2;SDS_P1;SDS_P2;PMS_P1;PMS_P2;Temp;Humidity;BMP_temperature;BMP_pressure;BME280_temperature;BME280_humidity;BME280_pressure;Samples;Min_cycle;Max_cycle;Signal;HPM_P1;HPM_P2
2023/11/21 00:01:25;;;;;;;55.40;47.17;;;;;;;;;;4954583;28;20027;-60
2023/11/21 00:03:54;;;;;;;58.35;47.35;;;;;;;;;;4971840;28;20117;-60
2023/11/21 00:06:20;;;;;;;57.50;48.45;;;;;;;;;;4971928;28;20435;-60
2023/11/21 00:08:46;;;;;;;56.55;47.55;;;;;;;;;;4971655;28;20031;-60
2023/11/21 00:11:12;;;;;;;58.20;46.13;;;;;;;;;;4971828;28;20054;-60
2023/11/21 00:13:38;;;;;;;57.15;47.03;;;;;;;;;;4971680;28;20121;-60
2023/11/21 00:16:04;;;;;;;60.58;46.55;;;;;;;;;;4971924;28;20503;-60
2023/11/21 00:18:30;;;;;;;56.05;46.45;;;;;;;;;;4974041;28;20035;-59
2023/11/21 00:20:59;;;;;;;56.72;48.60;;;;;;;;;;4975639;28;20027;-60
2023/11/21 00:23:25;;;;;;;57.67;46.65;;;;;;;;;;4975015;28;20035;-60
2023/11/21 00:25:51;;;;;;;55.90;47.50;;;;;;;;;;4965454;28;20045;-60
2023/11/21 00:28:17;;;;;;;57.53;46.50;;;;;;;;;;4961400;28;20062;-60
2023/11/21 00:30:43;;;;;;;54.53;45.67;;;;;;;;;;4974656;28;20043;-60
2023/11/21 00:33:09;;;;;;;53.72;46.28;;;;;;;;;;4975069;28;20047;-61
2023/11/21 00:35:35;;;;;;;55.30;46.05;;;;;;;;;;4975556;28;20070;-60
2023/11/21 00:38:01;;;;;;;52.50;43.90;;;;;;;;;;4975912;28;20041;-60
2023/11/21 00:40:27;;;;;;;55.67;46.17;;;;;;;;;;4959001;28;20027;-60
2023/11/21 00:42:53;;;;;;;54.45;45.15;;;;;;;;;;4967759;28;20102;-60
2023/11/21 00:45:19;;;;;;;56.95;45.75;;;;;;;;;;4970332;28;20125;-60
2023/11/21 00:47:45;;;;;;;55.53;43.85;;;;;;;;;;4974596;28;20524;-60
2023/11/21 00:50:33;;;;;;;58.58;45.30;;;;;;;;;;4975823;28;20105;-60
2023/11/21 00:52:59;;;;;;;51.30;42.50;;;;;;;;;;4974766;28;20046;-61
2023/11/21 00:55:26;;;;;;;54.03;43.97;;;;;;;;;;4975987;28;20149;-60
2023/11/21 00:57:52;;;;;;;52.78;43.78;;;;;;;;;;4975518;28;20038;-60
2023/11/21 01:00:18;;;;;;;53.15;43.70;;;;;;;;;;4975015;28;20119;-61
2023/11/21 01:02:44;;;;;;;53.90;44.80;;;;;;;;;;4975567;28;20507;-60
2023/11/21 01:05:11;;;;;;;51.10;41.38;;;;;;;;;;4975571;28;20504;-61
2023/11/21 01:07:37;;;;;;;53.83;44.22;;;;;;;;;;4975745;28;20147;-60
2023/11/21 01:10:07;;;;;;;50.45;41.80;;;;;;;;;;4975650;28;20066;-60
2023/11/21 01:12:33;;;;;;;53.72;42.22;;;;;;;;;;4975429;28;20023;-60
2023/11/21 01:15:00;;;;;;;52.22;42.55;;;;;;;;;;4973168;28;20037;-60
2023/11/21 01:17:27;;;;;;;52.03;41.78;;;;;;;;;;4962622;28;20077;-61
2023/11/21 01:19:53;;;;;;;52.55;40.72;;;;;;;;;;4975245;28;20081;-60
2023/11/21 01:22:25;;;;;;;52.03;41.58;;;;;;;;;;4974989;28;20031;-61
2023/11/21 01:24:51;;;;;;;50.65;41.22;;;;;;;;;;4975480;28;20030;-61
2023/11/21 01:27:18;;;;;;;51.38;41.20;;;;;;;;;;4975145;28;20098;-60
2023/11/21 01:29:44;;;;;;;51.63;41.00;;;;;;;;;;4974567;28;20042;-61
2023/11/21 01:32:10;;;;;;;52.90;41.50;;;;;;;;;;4974984;28;20034;-61
2023/11/21 01:34:36;;;;;;;46.72;38.53;;;;;;;;;;4975544;28;20041;-61
2023/11/21 01:37:04;;;;;;;50.05;40.38;;;;;;;;;;4974623;28;20396;-60
2023/11/21 01:39:30;;;;;;;51.20;41.83;;;;;;;;;;4974689;28;20027;-61
2023/11/21 01:41:58;;;;;;;50.22;39.08;;;;;;;;;;4975235;28;20029;-61
2023/11/21 01:44:24;;;;;;;51.75;39.38;;;;;;;;;;4974791;28;20185;-61
2023/11/21 01:46:51;;;;;;;52.22;39.65;;;;;;;;;;4974788;28;20106;-61
2023/11/21 01:49:17;;;;;;;51.15;40.38;;;;;;;;;;4974741;28;20053;-60
2023/11/21 01:51:47;;;;;;;53.50;41.63;;;;;;;;;;4966868;28;20031;-61
2023/11/21 01:54:13;;;;;;;51.85;39.83;;;;;;;;;;4969255;28;20130;-61
2023/11/21 01:56:40;;;;;;;49.58;39.10;;;;;;;;;;4974417;28;20220;-61
2023/11/21 01:59:07;;;;;;;50.17;38.50;;;;;;;;;;4974578;28;20027;-61
2023/11/21 02:01:33;;;;;;;47.88;38.35;;;;;;;;;;4974401;28;20026;-60
2023/11/21 02:03:59;;;;;;;46.15;37.25;;;;;;;;;;4974533;28;20019;-61
2023/11/21 02:06:25;;;;;;;49.60;38.28;;;;;;;;;;4974243;28;20050;-60
2023/11/21 02:08:51;;;;;;;47.22;37.33;;;;;;;;;;4974275;28;20019;-60
2023/11/21 02:11:19;;;;;;;53.33;39.22;;;;;;;;;;4974196;28;20025;-60
2023/11/21 02:13:47;;;;;;;51.35;37.90;;;;;;;;;;4973815;28;20019;-60
2023/11/21 02:16:13;;;;;;;49.67;37.20;;;;;;;;;;4973545;28;20034;-60
2023/11/21 02:18:39;;;;;;;47.88;37.38;;;;;;;;;;4973364;28;20043;-61
2023/11/21 02:21:06;;;;;;;50.15;39.17;;;;;;;;;;4973728;28;20383;-60
2023/11/21 02:23:32;;;;;;;48.90;39.42;;;;;;;;;;4963891;28;20035;-60
2023/11/21 02:25:57;;;;;;;49.60;37.08;;;;;;;;;;4954216;28;20019;-60
2023/11/21 02:28:25;;;;;;;49.90;39.00;;;;;;;;;;4971780;28;20577;-60
2023/11/21 02:30:55;;;;;;;49.60;38.20;;;;;;;;;;4973232;28;20046;-60
2023/11/21 02:33:21;;;;;;;48.47;37.38;;;;;;;;;;4973657;28;20216;-61
2023/11/21 02:35:47;;;;;;;49.10;38.00;;;;;;;;;;4973535;28;20023;-60
2023/11/21 02:38:14;;;;;;;52.45;38.95;;;;;;;;;;4973029;28;20506;-60
2023/11/21 02:40:40;;;;;;;46.60;36.08;;;;;;;;;;4972264;28;20105;-60
2023/11/21 02:43:06;;;;;;;47.13;36.45;;;;;;;;;;4973329;28;20110;-61
2023/11/21 02:45:32;;;;;;;49.00;37.17;;;;;;;;;;4972980;28;20456;-61
2023/11/21 02:47:59;;;;;;;49.92;38.30;;;;;;;;;;4971631;28;20026;-60
2023/11/21 02:50:25;;;;;;;47.40;36.35;;;;;;;;;;4972942;28;20050;-60
2023/11/21 02:52:51;;;;;;;45.70;36.83;;;;;;;;;;4972719;28;20074;-60
2023/11/21 02:55:17;;;;;;;47.15;34.13;;;;;;;;;;4966487;28;20039;-61
2023/11/21 02:57:43;;;;;;;44.45;34.03;;;;;;;;;;4972462;28;20046;-61
2023/11/21 03:00:14;;;;;;;42.70;33.80;;;;;;;;;;4973195;28;20022;-60
2023/11/21 03:02:40;;;;;;;41.95;35.88;;;;;;;;;;4973237;28;20030;-61
2023/11/21 03:05:08;;;;;;;45.90;33.55;;;;;;;;;;4973668;28;20365;-60
2023/11/21 03:07:34;;;;;;;41.95;35.22;;;;;;;;;;4973614;28;20035;-61
2023/11/21 03:10:00;;;;;;;47.67;35.35;;;;;;;;;;4973408;28;20026;-61
2023/11/21 03:12:27;;;;;;;52.10;34.95;;;;;;;;;;4973105;28;20030;-61
2023/11/21 03:14:54;;;;;;;43.78;33.80;;;;;;;;;;4973172;28;20026;-60
2023/11/21 03:17:20;;;;;;;45.95;34.88;;;;;;;;;;4973185;28;20026;-60
2023/11/21 03:19:46;;;;;;;42.38;33.50;;;;;;;;;;4955838;28;20102;-61
2023/11/21 03:22:13;;;;;;;46.47;35.05;;;;;;;;;;4973020;28;20090;-61
2023/11/21 03:24:39;;;;;;;47.30;34.47;;;;;;;;;;4972905;28;20077;-60
2023/11/21 03:27:05;;;;;;;45.00;33.60;;;;;;;;;;4971497;28;20046;-61
2023/11/21 03:29:31;;;;;;;48.45;33.30;;;;;;;;;;4971967;28;20065;-61
2023/11/21 03:31:57;;;;;;;51.47;35.10;;;;;;;;;;4971815;28;20027;-61
2023/11/21 03:34:26;;;;;;;45.17;32.63;;;;;;;;;;4972832;28;20025;-60
2023/11/21 03:36:52;;;;;;;51.70;34.67;;;;;;;;;;4971973;28;20035;-60
2023/11/21 03:39:18;;;;;;;45.53;33.42;;;;;;;;;;4972310;28;20481;-60
2023/11/21 03:41:44;;;;;;;40.28;32.38;;;;;;;;;;4972941;28;20136;-60
2023/11/21 03:44:10;;;;;;;46.13;33.50;;;;;;;;;;4972865;28;20023;-60
2023/11/21 03:46:36;;;;;;;52.45;34.67;;;;;;;;;;4972771;28;20029;-59
2023/11/21 03:49:02;;;;;;;46.47;34.70;;;;;;;;;;4973085;28;20027;-60
2023/11/21 03:51:28;;;;;;;54.58;35.03;;;;;;;;;;4973491;28;20127;-59
2023/11/21 03:53:54;;;;;;;54.53;35.20;;;;;;;;;;4977013;28;20117;-60
2023/11/21 03:56:24;;;;;;;52.28;35.15;;;;;;;;;;4977073;28;20023;-60
2023/11/21 03:58:50;;;;;;;47.40;32.53;;;;;;;;;;4976898;28;20035;-60
2023/11/21 04:01:22;;;;;;;47.55;33.40;;;;;;;;;;4976285;28;20511;-60
2023/11/21 04:03:49;;;;;;;46.80;32.80;;;;;;;;;;4976614;28;20023;-60
2023/11/21 04:06:15;;;;;;;51.55;33.03;;;;;;;;;;4976578;28;20572;-60
2023/11/21 04:08:41;;;;;;;42.05;31.50;;;;;;;;;;4976502;28;20053;-60
2023/11/21 04:11:07;;;;;;;47.05;33.22;;;;;;;;;;4976632;28;20027;-60
2023/11/21 04:13:33;;;;;;;44.90;31.75;;;;;;;;;;4959078;28;20085;-60
2023/11/21 04:15:59;;;;;;;52.70;33.25;;;;;;;;;;4976560;28;20322;-60
2023/11/21 04:18:24;;;;;;;45.28;32.60;;;;;;;;;;4975914;28;20039;-60
2023/11/21 04:20:50;;;;;;;42.97;29.90;;;;;;;;;;4976431;28;20046;-59
2023/11/21 04:23:16;;;;;;;46.60;31.88;;;;;;;;;;4976330;28;20081;-60
2023/11/21 04:25:43;;;;;;;47.50;30.13;;;;;;;;;;4976361;28;20025;-60
2023/11/21 04:28:09;;;;;;;50.55;31.27;;;;;;;;;;4976185;28;20111;-60
2023/11/21 04:30:35;;;;;;;51.63;30.50;;;;;;;;;;4958359;28;20454;-60
2023/11/21 04:33:02;;;;;;;45.67;31.60;;;;;;;;;;4974393;28;20078;-60
2023/11/21 04:35:28;;;;;;;46.58;31.13;;;;;;;;;;4976068;28;20026;-60
2023/11/21 04:37:54;;;;;;;53.35;30.42;;;;;;;;;;4975951;28;20035;-60
2023/11/21 04:40:20;;;;;;;45.70;31.05;;;;;;;;;;4958569;28;20022;-60
2023/11/21 04:42:46;;;;;;;47.70;30.95;;;;;;;;;;4972335;28;20447;-60
2023/11/21 04:45:12;;;;;;;46.42;30.73;;;;;;;;;;4976031;28;20026;-60
2023/11/21 04:47:38;;;;;;;51.00;31.80;;;;;;;;;;4975858;28;20054;-60
2023/11/21 04:50:05;;;;;;;42.75;28.75;;;;;;;;;;4975831;28;20034;-60
2023/11/21 04:52:33;;;;;;;47.88;31.10;;;;;;;;;;4975848;28;20050;-60
2023/11/21 04:55:00;;;;;;;47.33;30.02;;;;;;;;;;4975862;28;20428;-61
2023/11/21 04:57:28;;;;;;;46.53;31.17;;;;;;;;;;4968434;28;20039;-60
2023/11/21 04:59:54;;;;;;;52.75;32.47;;;;;;;;;;4966297;28;20102;-60
2023/11/21 05:02:21;;;;;;;44.63;29.98;;;;;;;;;;4969989;28;20544;-59
2023/11/21 05:04:47;;;;;;;48.58;29.25;;;;;;;;;;4959268;28;20494;-60
2023/11/21 05:07:13;;;;;;;51.92;29.02;;;;;;;;;;4958057;28;20070;-60
2023/11/21 05:09:46;;;;;;;48.08;31.05;;;;;;;;;;4966842;28;20453;-60
2023/11/21 05:12:12;;;;;;;44.05;29.95;;;;;;;;;;4975627;28;20031;-60
2023/11/21 05:14:38;;;;;;;43.67;27.67;;;;;;;;;;4975455;28;20095;-62
2023/11/21 05:17:05;;;;;;;41.42;28.52;;;;;;;;;;4975721;28;20133;-67
2023/11/21 05:19:32;;;;;;;40.30;27.70;;;;;;;;;;4970244;28;20019;-67
2023/11/21 05:22:00;;;;;;;44.95;29.52;;;;;;;;;;4973567;28;20078;-67
2023/11/21 05:24:26;;;;;;;44.83;29.23;;;;;;;;;;4975181;28;20062;-67
2023/11/21 05:26:52;;;;;;;46.13;28.98;;;;;;;;;;4975085;28;20037;-67
2023/11/21 05:29:18;;;;;;;45.90;29.80;;;;;;;;;;4957678;28;20027;-67
2023/11/21 05:31:44;;;;;;;46.15;30.05;;;;;;;;;;4975197;28;20027;-67
2023/11/21 05:34:10;;;;;;;50.05;31.38;;;;;;;;;;4974567;28;20031;-67
2023/11/21 05:36:36;;;;;;;46.90;28.65;;;;;;;;;;4973810;28;20358;-67
2023/11/21 05:39:03;;;;;;;45.53;28.17;;;;;;;;;;4973715;28;20054;-67
2023/11/21 05:41:29;;;;;;;45.30;29.85;;;;;;;;;;4974324;28;20026;-67
2023/11/21 05:43:56;;;;;;;47.13;29.63;;;;;;;;;;4974728;28;20027;-67
2023/11/21 05:46:22;;;;;;;45.55;26.83;;;;;;;;;;4974841;28;20175;-67
2023/11/21 05:48:48;;;;;;;47.58;27.35;;;;;;;;;;4974584;28;20023;-67
2023/11/21 05:51:14;;;;;;;48.70;27.77;;;;;;;;;;4974791;28;20040;-67
2023/11/21 05:53:40;;;;;;;52.30;31.88;;;;;;;;;;4974875;28;20042;-67
2023/11/21 05:56:07;;;;;;;52.97;31.90;;;;;;;;;;4974674;28;20019;-67
2023/11/21 05:58:33;;;;;;;59.47;32.50;;;;;;;;;;4974778;28;20396;-67
2023/11/21 06:01:00;;;;;;;51.17;32.75;;;;;;;;;;4974337;28;20023;-67
2023/11/21 06:03:25;;;;;;;46.83;32.20;;;;;;;;;;4974650;28;20354;-67
2023/11/21 06:05:51;;;;;;;48.85;32.35;;;;;;;;;;4974430;28;20098;-67
2023/11/21 06:08:18;;;;;;;51.85;32.47;;;;;;;;;;4973097;28;20506;-67
2023/11/21 06:10:44;;;;;;;49.28;30.55;;;;;;;;;;4967533;28;20506;-67
2023/11/21 06:13:10;;;;;;;48.78;30.58;;;;;;;;;;4974354;28;20031;-66
2023/11/21 06:15:36;;;;;;;44.15;29.52;;;;;;;;;;4974297;28;20034;-67
2023/11/21 06:18:03;;;;;;;48.63;30.13;;;;;;;;;;4974036;28;20503;-67
2023/11/21 06:20:28;;;;;;;45.40;30.55;;;;;;;;;;4974179;28;20034;-67
2023/11/21 06:22:55;;;;;;;48.20;31.48;;;;;;;;;;4974282;28;20030;-67
2023/11/21 06:25:21;;;;;;;43.72;30.48;;;;;;;;;;4974124;28;20054;-65
2023/11/21 06:27:48;;;;;;;44.53;30.98;;;;;;;;;;4973937;28;20046;-65
2023/11/21 06:30:15;;;;;;;50.70;31.60;;;;;;;;;;4973589;28;20042;-66
2023/11/21 06:32:41;;;;;;;48.30;32.00;;;;;;;;;;4973771;28;20142;-66
2023/11/21 06:35:09;;;;;;;44.67;31.60;;;;;;;;;;4968545;28;20023;-66
2023/11/21 06:37:36;;;;;;;44.80;28.90;;;;;;;;;;4973545;28;20027;-66
2023/11/21 06:40:03;;;;;;;42.55;30.80;;;;;;;;;;4973122;28;20023;-66
2023/11/21 06:42:29;;;;;;;47.50;31.13;;;;;;;;;;4972945;28;20472;-66
2023/11/21 06:44:57;;;;;;;46.58;30.23;;;;;;;;;;4966321;28;20079;-66
2023/11/21 06:47:24;;;;;;;45.92;29.33;;;;;;;;;;4962603;28;20365;-66
2023/11/21 06:49:50;;;;;;;43.47;29.02;;;;;;;;;;4959837;28;20019;-66
2023/11/21 06:52:16;;;;;;;41.75;29.88;;;;;;;;;;4972922;28;20427;-66
2023/11/21 06:54:43;;;;;;;45.10;30.33;;;;;;;;;;4971565;28;20205;-66
2023/11/21 06:57:09;;;;;;;51.17;32.42;;;;;;;;;;4973396;28;20101;-66
2023/11/21 06:59:35;;;;;;;46.83;32.10;;;;;;;;;;4954519;28;20441;-66
2023/11/21 07:02:01;;;;;;;46.63;32.78;;;;;;;;;;4967840;28;20033;-66
2023/11/21 07:04:27;;;;;;;50.63;33.45;;;;;;;;;;4973192;28;20030;-66
2023/11/21 07:06:56;;;;;;;50.40;33.08;;;;;;;;;;4959099;28;20058;-65
2023/11/21 07:09:22;;;;;;;47.88;32.60;;;;;;;;;;4972683;28;20030;-66
2023/11/21 07:11:48;;;;;;;48.40;34.42;;;;;;;;;;4959838;28;20086;-66
2023/11/21 07:14:15;;;;;;;48.55;33.53;;;;;;;;;;4970782;28;20026;-66
2023/11/21 07:16:41;;;;;;;52.60;34.58;;;;;;;;;;4968141;28;20038;-55
2023/11/21 07:19:08;;;;;;;54.83;33.90;;;;;;;;;;4972706;28;20384;-55
2023/11/21 07:21:34;;;;;;;52.42;34.17;;;;;;;;;;4962845;28;20023;-48
2023/11/21 07:24:04;;;;;;;52.25;35.85;;;;;;;;;;4955318;28;20026;-48
2023/11/21 07:26:30;;;;;;;51.75;36.05;;;;;;;;;;4971434;28;20023;-48
2023/11/21 07:28:56;;;;;;;53.40;34.75;;;;;;;;;;4972916;28;20031;-49
2023/11/21 07:31:24;;;;;;;52.05;35.15;;;;;;;;;;4969003;28;20061;-49
2023/11/21 07:33:50;;;;;;;54.28;35.13;;;;;;;;;;4970321;28;20019;-51
2023/11/21 07:36:23;;;;;;;60.30;38.80;;;;;;;;;;4965007;28;20432;-48
2023/11/21 07:38:49;;;;;;;57.25;36.78;;;;;;;;;;4972092;28;20031;-48
2023/11/21 07:41:15;;;;;;;56.83;40.45;;;;;;;;;;4954501;28;20093;-53
2023/11/21 07:43:41;;;;;;;59.28;37.47;;;;;;;;;;4959021;28;20452;-55
2023/11/21 07:46:07;;;;;;;54.25;36.40;;;;;;;;;;4972811;28;20433;-54
2023/11/21 07:48:34;;;;;;;53.22;36.35;;;;;;;;;;4954707;28;20053;-53
2023/11/21 07:51:00;;;;;;;59.15;39.63;;;;;;;;;;4971286;28;20027;-50
2023/11/21 07:53:29;;;;;;;56.83;37.70;;;;;;;;;;4970261;28;20041;-61
2023/11/21 07:55:56;;;;;;;61.63;39.88;;;;;;;;;;4971981;28;20035;-63
2023/11/21 07:58:22;;;;;;;57.50;37.58;;;;;;;;;;4973122;28;20084;-61
2023/11/21 08:00:48;;;;;;;56.05;38.15;;;;;;;;;;4955402;28;20042;-56
2023/11/21 08:03:14;;;;;;;59.55;38.70;;;;;;;;;;4972897;28;20042;-61
2023/11/21 08:05:40;;;;;;;57.28;38.72;;;;;;;;;;4972054;28;20113;-63
2023/11/21 08:08:07;;;;;;;56.20;39.20;;;;;;;;;;4973361;28;20132;-63
2023/11/21 08:10:33;;;;;;;60.67;39.35;;;;;;;;;;4953810;28;20035;-61
2023/11/21 08:12:59;;;;;;;63.90;39.13;;;;;;;;;;4955526;28;20029;-61
2023/11/21 08:15:25;;;;;;;60.05;39.22;;;;;;;;;;4971103;28;20110;-55
2023/11/21 08:17:51;;;;;;;56.08;36.80;;;;;;;;;;4972256;28;20097;-60
2023/11/21 08:20:17;;;;;;;59.17;39.40;;;;;;;;;;4972798;28;20090;-57
2023/11/21 08:22:44;;;;;;;63.03;38.58;;;;;;;;;;4971999;28;20034;-53
2023/11/21 08:25:10;;;;;;;58.03;38.65;;;;;;;;;;4972057;28;20026;-56
2023/11/21 08:27:36;;;;;;;56.67;38.20;;;;;;;;;;4972003;28;20476;-60
2023/11/21 08:30:03;;;;;;;56.15;38.90;;;;;;;;;;4971935;28;20062;-61
2023/11/21 08:32:33;;;;;;;56.90;37.78;;;;;;;;;;4971738;28;20035;-59
2023/11/21 08:34:59;;;;;;;56.70;38.05;;;;;;;;;;4971269;28;20453;-61
2023/11/21 08:37:26;;;;;;;57.63;40.67;;;;;;;;;;4972799;28;20081;-65
2023/11/21 08:39:53;;;;;;;58.20;40.30;;;;;;;;;;4970634;28;20027;-64
2023/11/21 08:42:19;;;;;;;54.28;39.72;;;;;;;;;;4976280;28;20034;-68
2023/11/21 08:44:45;;;;;;;54.10;40.95;;;;;;;;;;4972494;28;20492;-71
2023/11/21 08:47:11;;;;;;;57.30;40.72;;;;;;;;;;4973336;28;20097;-61
2023/11/21 08:49:37;;;;;;;57.80;42.58;;;;;;;;;;4976251;28;20361;-60
2023/11/21 08:52:04;;;;;;;59.33;41.20;;;;;;;;;;4975224;28;20027;-65
2023/11/21 08:54:31;;;;;;;58.97;42.17;;;;;;;;;;4976167;28;20026;-70
2023/11/21 08:56:58;;;;;;;59.17;43.08;;;;;;;;;;4968264;28;20035;-62
2023/11/21 08:59:24;;;;;;;64.97;43.83;;;;;;;;;;4975937;28;20114;-59
2023/11/21 09:01:50;;;;;;;65.07;42.50;;;;;;;;;;4973924;28;20035;-57
2023/11/21 09:04:16;;;;;;;56.05;41.22;;;;;;;;;;4973311;28;20085;-60
2023/11/21 09:06:42;;;;;;;58.67;41.05;;;;;;;;;;4971857;28;20043;-68
2023/11/21 09:09:10;;;;;;;66.03;42.58;;;;;;;;;;4971481;28;20022;-62
2023/11/21 09:11:36;;;;;;;56.42;40.83;;;;;;;;;;4973155;28;20030;-66
2023/11/21 09:14:03;;;;;;;58.72;42.35;;;;;;;;;;4971552;28;20038;-59
2023/11/21 09:16:29;;;;;;;62.97;43.10;;;;;;;;;;4970184;28;20023;-57
2023/11/21 09:18:55;;;;;;;62.20;41.22;;;;;;;;;;4974914;28;20067;-58
2023/11/21 09:21:21;;;;;;;60.88;42.65;;;;;;;;;;4974560;28;20094;-54
2023/11/21 09:23:48;;;;;;;56.92;42.08;;;;;;;;;;4963575;28;20448;-56
2023/11/21 09:26:16;;;;;;;58.95;41.13;;;;;;;;;;4974136;28;20042;-57
2023/11/21 09:28:46;;;;;;;62.35;43.40;;;;;;;;;;4965234;28;20505;-56
2023/11/21 09:31:12;;;;;;;63.47;40.63;;;;;;;;;;4970368;28;20046;-52
2023/11/21 09:33:38;;;;;;;58.53;40.05;;;;;;;;;;4967556;28;20022;-54
2023/11/21 09:36:04;;;;;;;62.80;40.13;;;;;;;;;;4969864;28;20023;-53
2023/11/21 09:38:31;;;;;;;57.42;40.00;;;;;;;;;;4966430;28;20034;-52
2023/11/21 09:40:58;;;;;;;56.45;40.42;;;;;;;;;;4968313;28;20028;-52
2023/11/21 09:43:27;;;;;;;60.00;40.30;;;;;;;;;;4965002;28;20035;-55
2023/11/21 09:46:00;;;;;;;58.50;40.25;;;;;;;;;;4973914;28;20116;-55
2023/11/21 09:48:26;;;;;;;58.95;41.13;;;;;;;;;;4972697;28;20110;-49
2023/11/21 09:50:54;;;;;;;62.88;42.20;;;;;;;;;;4968414;28;20042;-54
2023/11/21 09:53:21;;;;;;;62.38;40.65;;;;;;;;;;4974633;28;20046;-49
2023/11/21 09:55:47;;;;;;;64.72;42.03;;;;;;;;;;4974322;28;20385;-51
2023/11/21 09:58:14;;;;;;;68.45;40.95;;;;;;;;;;4974797;28;20085;-49
2023/11/21 10:00:47;;;;;;;58.97;41.05;;;;;;;;;;4968376;28;20023;-52
2023/11/21 10:03:13;;;;;;;58.42;40.00;;;;;;;;;;4967570;28;20167;-51
2023/11/21 10:05:39;;;;;;;58.95;42.33;;;;;;;;;;4970570;28;20109;-50
2023/11/21 10:08:08;;;;;;;59.60;39.72;;;;;;;;;;4974639;28;20026;-53
2023/11/21 10:10:34;;;;;;;60.55;41.90;;;;;;;;;;4956870;28;20042;-50
2023/11/21 10:13:03;;;;;;;56.58;39.10;;;;;;;;;;4974852;28;20054;-50
2023/11/21 10:15:30;;;;;;;56.33;41.03;;;;;;;;;;4952474;28;20039;-54
2023/11/21 10:17:56;;;;;;;61.60;41.50;;;;;;;;;;4967723;28;20484;-52
2023/11/21 10:20:24;;;;;;;56.80;40.30;;;;;;;;;;4968721;28;20054;-49
2023/11/21 10:22:50;;;;;;;51.92;39.20;;;;;;;;;;4966173;28;20027;-53
2023/11/21 10:25:18;;;;;;;55.95;40.53;;;;;;;;;;4970410;28;20027;-50
2023/11/21 10:27:47;;;;;;;54.88;38.40;;;;;;;;;;4963780;28;20031;-49
2023/11/21 10:30:13;;;;;;;55.03;38.85;;;;;;;;;;4964010;28;20509;-50
2023/11/21 10:32:42;;;;;;;57.08;38.92;;;;;;;;;;4974119;28;20559;-51
2023/11/21 10:35:12;;;;;;;57.35;39.20;;;;;;;;;;4972547;28;20035;-51
2023/11/21 10:37:42;;;;;;;62.47;39.85;;;;;;;;;;4974821;28;20452;-53
2023/11/21 10:40:11;;;;;;;62.72;41.72;;;;;;;;;;4973095;28;20027;-50
2023/11/21 10:42:37;;;;;;;64.75;41.85;;;;;;;;;;4961884;28;20437;-52
2023/11/21 10:45:09;;;;;;;60.33;42.90;;;;;;;;;;4973018;28;20495;-52
2023/11/21 10:47:36;;;;;;;57.40;41.70;;;;;;;;;;4973793;28;20019;-53
2023/11/21 10:50:02;;;;;;;53.45;39.88;;;;;;;;;;4972878;28;20046;-50
2023/11/21 10:52:28;;;;;;;60.75;43.10;;;;;;;;;;4970529;28;20038;-49
2023/11/21 10:54:54;;;;;;;51.05;39.95;;;;;;;;;;4969497;28;20050;-51
2023/11/21 10:57:21;;;;;;;54.50;40.65;;;;;;;;;;4972231;28;20069;-54
2023/11/21 10:59:49;;;;;;;56.88;39.47;;;;;;;;;;4973613;28;20019;-50
2023/11/21 11:02:27;;;;;;;58.50;40.45;;;;;;;;;;4951443;28;20417;-54
2023/11/21 11:04:55;;;;;;;60.13;41.97;;;;;;;;;;4960871;28;20019;-50
2023/11/21 11:07:22;;;;;;;56.00;41.03;;;;;;;;;;4960079;28;20034;-49
2023/11/21 11:09:48;;;;;;;59.78;42.15;;;;;;;;;;4972616;28;20023;-54
2023/11/21 11:12:14;;;;;;;58.08;42.20;;;;;;;;;;4961952;28;20023;-52
2023/11/21 11:14:43;;;;;;;56.40;41.67;;;;;;;;;;4970609;28;20105;-53
2023/11/21 11:17:09;;;;;;;56.97;41.25;;;;;;;;;;4963132;28;20106;-54
2023/11/21 11:19:36;;;;;;;60.35;43.78;;;;;;;;;;4958714;28;20118;-53
2023/11/21 11:22:16;;;;;;;56.88;44.47;;;;;;;;;;4965581;28;20029;-54
2023/11/21 11:24:45;;;;;;;63.97;43.70;;;;;;;;;;4977311;28;20031;-51
2023/11/21 11:27:28;;;;;;;57.70;44.08;;;;;;;;;;4964148;28;20122;-50
2023/11/21 11:30:03;;;;;;;59.20;43.72;;;;;;;;;;4966368;28;20074;-51
2023/11/21 11:32:29;;;;;;;;;;;;;;;;;;4962577;28;20493;-51
2023/11/21 11:35:02;;;;;;;62.75;45.97;;;;;;;;;;4967566;28;19960;-50
2023/11/21 11:37:28;;;;;;;61.08;44.88;;;;;;;;;;4972129;28;20545;-50
2023/11/21 11:39:55;;;;;;;58.35;42.42;;;;;;;;;;4965523;28;20057;-49
2023/11/21 11:42:23;;;;;;;63.53;46.20;;;;;;;;;;4971768;28;20503;-49
2023/11/21 11:44:54;;;;;;;60.60;46.08;;;;;;;;;;4972918;28;20026;-49
2023/11/21 11:47:27;;;;;;;61.53;44.28;;;;;;;;;;4972044;28;20405;-49
2023/11/21 11:50:22;;;;;;;62.95;45.40;;;;;;;;;;4972993;28;20061;-53
2023/11/21 11:52:50;;;;;;;62.05;45.63;;;;;;;;;;4960437;28;20027;-51
2023/11/21 11:55:20;;;;;;;58.90;43.05;;;;;;;;;;4972213;28;20499;-52
2023/11/21 11:57:47;;;;;;;61.35;44.65;;;;;;;;;;4965802;28;20180;-50
2023/11/21 12:00:27;;;;;;;60.03;45.15;;;;;;;;;;4968151;28;20027;-52
2023/11/21 12:02:54;;;;;;;60.72;44.47;;;;;;;;;;4966944;28;20114;-53
2023/11/21 12:05:23;;;;;;;57.92;43.72;;;;;;;;;;4963046;28;20110;-53
2023/11/21 12:07:49;;;;;;;65.13;45.50;;;;;;;;;;4972075;28;20027;-51
2023/11/21 12:10:19;;;;;;;57.78;44.67;;;;;;;;;;4971583;28;20037;-51
2023/11/21 12:12:52;;;;;;;58.50;43.58;;;;;;;;;;4963750;28;20417;-49
2023/11/21 12:15:19;;;;;;;60.10;45.85;;;;;;;;;;4974375;28;20067;-51
2023/11/21 12:17:45;;;;;;;57.85;43.05;;;;;;;;;;4976598;28;20065;-49
2023/11/21 12:20:17;;;;;;;60.53;45.17;;;;;;;;;;4975076;28;20504;-55
2023/11/21 12:22:56;;;;;;;56.92;43.88;;;;;;;;;;4968791;28;20034;-54
2023/11/21 12:25:23;;;;;;;58.60;44.95;;;;;;;;;;4970622;28;20039;-50
2023/11/21 12:27:49;;;;;;;63.95;46.60;;;;;;;;;;4976405;28;20031;-52
2023/11/21 12:30:17;;;;;;;61.20;43.65;;;;;;;;;;4974256;28;20073;-52
2023/11/21 12:32:48;;;;;;;58.30;42.58;;;;;;;;;;4975517;28;20121;-51
2023/11/21 12:35:14;;;;;;;62.25;45.10;;;;;;;;;;4961985;28;20031;-49
2023/11/21 12:37:42;;;;;;;60.67;45.45;;;;;;;;;;4965382;28;20098;-48
2023/11/21 12:40:11;;;;;;;59.67;43.60;;;;;;;;;;4974562;28;20477;-60
2023/11/21 12:42:38;;;;;;;57.55;44.58;;;;;;;;;;4973570;28;20376;-60
2023/11/21 12:45:31;;;;;;;61.65;44.95;;;;;;;;;;4972976;28;20385;-51
2023/11/21 12:47:59;;;;;;;60.17;43.10;;;;;;;;;;4969318;28;20042;-63
2023/11/21 12:50:31;;;;;;;57.85;41.67;;;;;;;;;;4957103;28;20030;-61
2023/11/21 12:53:05;;;;;;;58.53;42.58;;;;;;;;;;4971522;28;20107;-62
2023/11/21 12:55:37;;;;;;;57.70;42.60;;;;;;;;;;4954720;28;20385;-62
2023/11/21 12:58:10;;;;;;;56.65;42.40;;;;;;;;;;4973670;28;20051;-59
2023/11/21 13:00:37;;;;;;;58.13;44.03;;;;;;;;;;4972035;28;20027;-60
2023/11/21 13:03:03;;;;;;;57.70;43.38;;;;;;;;;;4969353;28;20141;-61
2023/11/21 13:05:38;;;;;;;59.65;44.25;;;;;;;;;;4978106;28;20105;-57
2023/11/21 13:08:07;;;;;;;62.70;45.67;;;;;;;;;;4974125;28;20037;-57
2023/11/21 13:10:36;;;;;;;62.17;46.92;;;;;;;;;;4972957;28;20034;-58
2023/11/21 13:13:05;;;;;;;62.05;44.70;;;;;;;;;;4968035;28;20031;-55
2023/11/21 13:15:32;;;;;;;61.40;46.05;;;;;;;;;;4965953;28;20027;-53
2023/11/21 13:17:58;;;;;;;62.83;44.72;;;;;;;;;;4972725;28;20499;-60
2023/11/21 13:20:25;;;;;;;64.68;48.30;;;;;;;;;;4969681;28;20027;-49
2023/11/21 13:22:58;;;;;;;57.60;44.20;;;;;;;;;;4972963;28;20031;-46
2023/11/21 13:25:27;;;;;;;59.72;45.05;;;;;;;;;;4973105;28;20196;-47
2023/11/21 13:27:56;;;;;;;56.60;43.17;;;;;;;;;;4971651;28;20034;-47
2023/11/21 13:30:27;;;;;;;60.65;45.88;;;;;;;;;;4973134;28;20043;-46
2023/11/21 13:32:56;;;;;;;60.28;41.65;;;;;;;;;;4972179;28;20134;-50
2023/11/21 13:35:31;;;;;;;62.33;47.22;;;;;;;;;;4955146;28;20030;-50
2023/11/21 13:37:59;;;;;;;57.72;44.30;;;;;;;;;;4974293;28;20588;-48
2023/11/21 13:40:26;;;;;;;61.90;46.28;;;;;;;;;;4972161;28;20019;-46
2023/11/21 13:42:59;;;;;;;61.90;48.63;;;;;;;;;;4973971;28;20059;-46
2023/11/21 13:45:27;;;;;;;65.60;46.13;;;;;;;;;;4972065;28;20027;-59
2023/11/21 13:47:59;;;;;;;61.70;46.40;;;;;;;;;;4969246;28;20031;-64
2023/11/21 13:50:35;;;;;;;65.78;46.60;;;;;;;;;;4966208;28;20047;-62
2023/11/21 13:53:08;;;;;;;65.93;47.47;;;;;;;;;;4974310;28;20109;-61
2023/11/21 13:55:35;;;;;;;64.88;47.22;;;;;;;;;;4963183;28;20709;-61
2023/11/21 13:58:09;;;;;;;63.35;47.88;;;;;;;;;;4965579;28;20046;-63
2023/11/21 14:00:55;;;;;;;63.90;46.45;;;;;;;;;;4968372;28;20112;-67
2023/11/21 14:03:21;;;;;;;65.25;46.97;;;;;;;;;;4971102;28;20026;-64
2023/11/21 14:05:51;;;;;;;67.97;46.15;;;;;;;;;;4969718;28;20027;-66
2023/11/21 14:08:28;;;;;;;63.85;46.22;;;;;;;;;;4971856;28;20369;-61
2023/11/21 14:10:57;;;;;;;61.17;47.13;;;;;;;;;;4970425;28;20045;-62
2023/11/21 14:13:24;;;;;;;67.82;44.83;;;;;;;;;;4972315;28;20092;-60
2023/11/21 14:15:57;;;;;;;61.88;46.33;;;;;;;;;;4971946;28;20087;-59
2023/11/21 14:18:30;;;;;;;57.85;45.17;;;;;;;;;;4972752;28;20465;-62
2023/11/21 14:20:56;;;;;;;61.70;45.25;;;;;;;;;;4972108;28;20054;-64